createdAt,value
2018-03-30T00:00:44.905Z,19.00
2018-03-30T00:03:12.580Z,19.00
2018-03-30T00:05:40.258Z,19.00
2018-03-30T00:08:07.938Z,19.00
2018-03-30T00:10:42.001Z,19.00
2018-03-30T00:13:09.650Z,19.00
2018-03-30T00:15:37.337Z,19.00
2018-03-30T00:18:04.994Z,19.00
2018-03-30T00:20:32.671Z,19.00
2018-03-30T00:23:00.348Z,19.00
2018-03-30T00:25:28.023Z,19.00
2018-03-30T00:27:56.489Z,19.00
2018-03-30T00:30:24.200Z,19.00
2018-03-30T00:32:51.851Z,19.00
2018-03-30T00:35:19.487Z,19.00
2018-03-30T00:37:47.911Z,19.00
2018-03-30T00:40:15.572Z,18.90
2018-03-30T00:42:43.231Z,19.00
2018-03-30T00:45:11.668Z,19.00
2018-03-30T00:47:40.217Z,18.90
2018-03-30T00:50:07.895Z,19.00
2018-03-30T00:52:36.314Z,19.00
2018-03-30T00:55:04.008Z,19.00
2018-03-30T00:57:31.690Z,19.00
2018-03-30T00:59:59.344Z,19.00
2018-03-30T01:02:27.000Z,19.00
2018-03-30T01:04:54.663Z,18.90
2018-03-30T01:07:22.310Z,18.90
2018-03-30T01:09:49.989Z,19.00
2018-03-30T01:12:17.646Z,18.90
2018-03-30T01:14:45.365Z,18.90
2018-03-30T01:17:13.055Z,18.90
2018-03-30T01:19:40.739Z,18.90
2018-03-30T01:22:09.267Z,18.90
2018-03-30T01:24:36.947Z,18.90
2018-03-30T01:27:04.660Z,18.90
2018-03-30T01:29:33.073Z,18.90
2018-03-30T01:32:00.765Z,18.90
2018-03-30T01:34:28.466Z,18.90
2018-03-30T01:36:56.160Z,18.90
2018-03-30T01:39:23.856Z,18.90
2018-03-30T01:41:51.514Z,18.90
2018-03-30T01:44:19.201Z,18.90
2018-03-30T01:46:47.617Z,18.90
2018-03-30T01:49:15.416Z,18.90
2018-03-30T01:51:43.941Z,18.90
2018-03-30T01:54:11.694Z,18.90
2018-03-30T01:56:39.460Z,18.90
2018-03-30T01:59:07.212Z,18.90
2018-03-30T02:01:34.974Z,18.90
2018-03-30T02:04:02.742Z,18.90
2018-03-30T02:06:30.512Z,18.90
2018-03-30T02:08:58.294Z,18.90
2018-03-30T02:11:26.042Z,18.90
2018-03-30T02:13:53.793Z,18.80
2018-03-30T02:16:21.560Z,18.90
2018-03-30T02:18:49.318Z,18.90
2018-03-30T02:21:17.078Z,18.90
2018-03-30T02:23:44.889Z,18.90
2018-03-30T02:26:12.661Z,18.90
2018-03-30T02:28:40.409Z,18.80
2018-03-30T02:31:08.105Z,18.90
2018-03-30T02:33:35.835Z,18.80
2018-03-30T02:36:03.680Z,18.80
2018-03-30T02:38:31.355Z,18.80
2018-03-30T02:40:59.789Z,18.80
2018-03-30T02:43:28.223Z,18.80
2018-03-30T02:45:55.880Z,18.80
2018-03-30T02:48:23.549Z,18.80
2018-03-30T02:50:51.279Z,18.80
2018-03-30T02:53:18.959Z,18.80
2018-03-30T02:55:46.640Z,18.80
2018-03-30T02:58:14.326Z,18.80
2018-03-30T03:00:41.987Z,18.80
2018-03-30T03:03:09.696Z,18.80
2018-03-30T03:05:37.362Z,18.80
2018-03-30T03:10:39.066Z,18.80
2018-03-30T03:13:06.765Z,18.80
2018-03-30T03:15:34.437Z,18.80
2018-03-30T03:18:02.241Z,18.80
2018-03-30T03:20:30.735Z,18.80
2018-03-30T03:22:58.403Z,18.70
2018-03-30T03:25:26.061Z,18.80
2018-03-30T03:27:53.735Z,18.80
2018-03-30T03:30:22.201Z,18.70
2018-03-30T03:32:49.936Z,18.70
2018-03-30T03:35:17.616Z,18.70
2018-03-30T03:37:45.275Z,18.70
2018-03-30T03:40:12.925Z,18.80
2018-03-30T03:42:40.606Z,18.70
2018-03-30T03:45:08.272Z,18.70
2018-03-30T03:47:35.947Z,18.70
2018-03-30T03:50:04.429Z,18.70
2018-03-30T03:52:32.870Z,18.70
2018-03-30T03:55:00.620Z,18.70
2018-03-30T03:57:28.306Z,18.70
2018-03-30T03:59:55.975Z,18.70
2018-03-30T04:02:23.648Z,18.70
2018-03-30T04:04:52.091Z,18.70
2018-03-30T04:07:19.772Z,18.70
2018-03-30T04:09:47.611Z,18.70
2018-03-30T04:12:15.247Z,18.70
2018-03-30T04:14:42.900Z,18.70
2018-03-30T04:17:10.550Z,18.70
2018-03-30T04:19:38.217Z,18.70
2018-03-30T04:22:05.935Z,18.70
2018-03-30T04:24:33.633Z,18.70
2018-03-30T04:27:02.095Z,18.70
2018-03-30T04:29:30.576Z,18.70
2018-03-30T04:31:59.008Z,18.70
2018-03-30T04:34:26.661Z,18.60
2018-03-30T04:36:54.437Z,18.60
2018-03-30T04:39:22.133Z,18.70
2018-03-30T04:41:50.579Z,18.70
2018-03-30T04:44:18.258Z,18.60
2018-03-30T04:46:45.935Z,18.60
2018-03-30T04:49:14.349Z,18.60
2018-03-30T04:51:42.012Z,18.60
2018-03-30T04:54:09.697Z,18.60
2018-03-30T04:56:37.378Z,18.60
2018-03-30T04:59:05.121Z,18.60
2018-03-30T05:01:32.826Z,18.60
2018-03-30T05:04:01.232Z,18.60
2018-03-30T05:06:28.904Z,18.60
2018-03-30T05:08:56.585Z,18.60
2018-03-30T05:11:24.257Z,18.60
2018-03-30T05:13:51.918Z,18.60
2018-03-30T05:16:19.576Z,18.60
2018-03-30T05:18:47.254Z,18.60
2018-03-30T05:21:14.987Z,18.60
2018-03-30T05:23:42.675Z,18.60
2018-03-30T05:26:10.358Z,18.60
2018-03-30T05:28:38.796Z,18.60
2018-03-30T05:31:06.496Z,18.50
2018-03-30T05:33:34.922Z,18.50
2018-03-30T05:36:02.606Z,18.50
2018-03-30T05:38:30.261Z,18.60
2018-03-30T05:40:58.019Z,18.60
2018-03-30T05:43:25.826Z,18.50
2018-03-30T05:45:53.579Z,18.60
2018-03-30T05:48:21.391Z,18.50
2018-03-30T05:50:49.168Z,18.60
2018-03-30T05:53:16.932Z,18.50
2018-03-30T05:55:44.705Z,18.50
2018-03-30T05:58:12.482Z,18.60
2018-03-30T06:00:41.047Z,18.50
2018-03-30T06:03:08.863Z,18.50
2018-03-30T06:05:36.623Z,18.50
2018-03-30T06:08:04.472Z,18.50
2018-03-30T06:10:32.976Z,18.50
2018-03-30T06:13:00.663Z,18.50
2018-03-30T06:15:28.323Z,18.50
2018-03-30T06:17:55.993Z,18.50
2018-03-30T06:20:23.676Z,18.50
2018-03-30T06:22:51.411Z,18.50
2018-03-30T06:25:19.100Z,18.50
2018-03-30T06:27:46.783Z,18.50
2018-03-30T06:30:15.257Z,18.50
2018-03-30T06:32:43.702Z,18.50
2018-03-30T06:35:11.374Z,18.50
2018-03-30T06:37:39.132Z,18.50
2018-03-30T06:40:06.877Z,18.50
2018-03-30T06:42:34.533Z,18.50
2018-03-30T06:45:02.213Z,18.50
2018-03-30T06:47:29.881Z,18.50
2018-03-30T06:49:57.535Z,18.50
2018-03-30T06:52:25.259Z,18.50
2018-03-30T06:54:52.935Z,18.50
2018-03-30T06:57:20.593Z,18.50
2018-03-30T07:02:11.824Z,18.40
2018-03-30T07:04:39.482Z,18.40
2018-03-30T07:07:07.167Z,18.40
2018-03-30T07:09:34.828Z,18.40
2018-03-30T07:12:02.511Z,18.40
2018-03-30T07:14:30.152Z,18.40
2018-03-30T07:16:57.827Z,18.40
2018-03-30T07:19:25.510Z,18.40
2018-03-30T07:21:53.934Z,18.40
2018-03-30T07:24:21.618Z,18.40
2018-03-30T07:26:49.275Z,18.40
2018-03-30T07:29:16.949Z,18.40
2018-03-30T07:31:44.646Z,18.40
2018-03-30T07:34:12.340Z,18.40
2018-03-30T07:36:40.084Z,18.40
2018-03-30T07:39:07.867Z,18.40
2018-03-30T07:41:35.627Z,18.40
2018-03-30T07:44:03.403Z,18.40
2018-03-30T07:46:31.144Z,18.40
2018-03-30T07:48:58.900Z,18.40
2018-03-30T07:51:26.667Z,18.40
2018-03-30T07:53:54.494Z,18.40
2018-03-30T07:56:22.281Z,18.40
2018-03-30T07:58:50.057Z,18.40
2018-03-30T08:01:17.825Z,18.40
2018-03-30T08:03:45.639Z,18.40
2018-03-30T08:06:14.183Z,18.40
2018-03-30T08:08:47.679Z,18.40
2018-03-30T08:11:15.464Z,18.40
2018-03-30T08:13:43.998Z,18.40
2018-03-30T08:16:11.768Z,18.40
2018-03-30T08:18:39.532Z,18.40
2018-03-30T08:21:07.337Z,18.40
2018-03-30T08:23:35.934Z,18.40
2018-03-30T08:26:03.792Z,18.30
2018-03-30T08:28:32.312Z,18.40
2018-03-30T08:31:00.106Z,18.40
2018-03-30T08:33:27.859Z,18.40
2018-03-30T08:35:55.638Z,18.40
2018-03-30T08:38:23.394Z,18.40
2018-03-30T08:40:51.173Z,18.40
2018-03-30T08:43:18.955Z,18.40
2018-03-30T08:45:47.527Z,18.40
2018-03-30T08:48:16.090Z,18.40
2018-03-30T08:50:43.862Z,18.30
2018-03-30T08:53:11.634Z,18.40
2018-03-30T08:55:39.423Z,18.40
2018-03-30T08:58:07.184Z,18.40
2018-03-30T09:00:36.695Z,18.40
2018-03-30T09:03:04.498Z,18.40
2018-03-30T09:05:32.266Z,18.40
2018-03-30T09:08:00.181Z,18.30
2018-03-30T09:10:27.953Z,18.40
2018-03-30T09:12:55.737Z,18.30
2018-03-30T09:15:23.523Z,18.40
2018-03-30T09:17:51.462Z,18.40
2018-03-30T09:20:19.251Z,18.30
2018-03-30T09:22:47.032Z,18.40
2018-03-30T09:25:14.862Z,18.40
2018-03-30T09:27:42.650Z,18.30
2018-03-30T09:30:10.415Z,18.30
2018-03-30T09:32:38.182Z,18.40
2018-03-30T09:35:06.004Z,18.30
2018-03-30T09:37:33.767Z,18.30
2018-03-30T09:40:01.524Z,18.30
2018-03-30T09:42:29.284Z,18.30
2018-03-30T09:44:57.060Z,18.30
2018-03-30T09:47:24.810Z,18.40
2018-03-30T09:49:52.546Z,18.30
2018-03-30T09:52:21.064Z,18.30
2018-03-30T09:54:48.879Z,18.30
2018-03-30T09:57:16.702Z,18.30
2018-03-30T09:59:44.428Z,18.40
2018-03-30T10:02:13.171Z,18.30
2018-03-30T10:04:45.849Z,18.30
2018-03-30T10:07:13.606Z,18.30
2018-03-30T10:09:41.366Z,18.30
2018-03-30T10:12:09.100Z,18.30
2018-03-30T10:14:36.948Z,18.30
2018-03-30T10:17:04.713Z,18.30
2018-03-30T10:19:32.452Z,18.30
2018-03-30T10:22:01.008Z,18.40
2018-03-30T10:24:28.787Z,18.30
2018-03-30T10:26:56.584Z,18.30
2018-03-30T10:29:24.339Z,18.30
2018-03-30T10:31:52.843Z,18.30
2018-03-30T10:34:20.617Z,18.30
2018-03-30T10:36:48.399Z,18.30
2018-03-30T10:39:16.189Z,18.30
2018-03-30T10:41:44.047Z,18.30
2018-03-30T10:44:11.856Z,18.40
2018-03-30T10:46:39.616Z,18.30
2018-03-30T10:49:07.372Z,18.40
2018-03-30T10:51:35.172Z,18.40
2018-03-30T10:54:02.943Z,18.40
2018-03-30T10:56:30.710Z,18.30
2018-03-30T10:58:58.476Z,18.30
2018-03-30T11:01:26.222Z,18.40
2018-03-30T11:03:54.003Z,18.40
2018-03-30T11:06:21.868Z,18.30
2018-03-30T11:08:49.653Z,18.40
2018-03-30T11:11:18.229Z,18.30
2018-03-30T11:13:46.011Z,18.30
2018-03-30T11:16:14.540Z,18.40
2018-03-30T11:18:42.317Z,18.30
2018-03-30T11:21:10.085Z,18.30
2018-03-30T11:23:38.065Z,18.30
2018-03-30T11:26:05.912Z,18.30
2018-03-30T11:28:33.666Z,18.40
2018-03-30T11:31:01.543Z,18.40
2018-03-30T11:33:29.313Z,18.40
2018-03-30T11:35:57.089Z,18.40
2018-03-30T11:38:25.697Z,18.40
2018-03-30T11:40:54.253Z,18.40
2018-03-30T11:43:22.044Z,18.30
2018-03-30T11:45:49.814Z,18.40
2018-03-30T11:48:17.576Z,18.30
2018-03-30T11:50:45.390Z,18.40
2018-03-30T11:53:13.310Z,18.40
2018-03-30T11:55:41.087Z,18.40
2018-03-30T11:58:09.662Z,18.40
2018-03-30T12:00:37.478Z,18.40
2018-03-30T12:03:05.267Z,18.40
2018-03-30T12:05:33.912Z,18.40
2018-03-30T12:08:01.720Z,18.40
2018-03-30T12:10:29.526Z,18.40
2018-03-30T12:12:57.307Z,18.40
2018-03-30T12:15:25.065Z,18.40
2018-03-30T12:17:52.810Z,18.40
2018-03-30T12:20:20.556Z,18.40
2018-03-30T12:22:48.341Z,18.40
2018-03-30T12:25:16.132Z,18.40
2018-03-30T12:27:43.892Z,18.40
2018-03-30T12:30:11.673Z,18.40
2018-03-30T12:32:40.204Z,18.40
2018-03-30T12:35:08.004Z,18.40
2018-03-30T12:37:36.606Z,18.40
2018-03-30T12:40:05.166Z,18.40
2018-03-30T12:42:32.989Z,18.40
2018-03-30T12:45:00.784Z,18.40
2018-03-30T12:47:28.584Z,18.40
2018-03-30T12:49:57.126Z,18.40
2018-03-30T12:52:24.890Z,18.40
2018-03-30T12:54:52.714Z,18.40
2018-03-30T12:57:20.481Z,18.40
2018-03-30T12:59:48.383Z,18.40
2018-03-30T13:02:16.154Z,18.40
2018-03-30T13:04:43.911Z,18.40
2018-03-30T13:07:11.693Z,18.40
2018-03-30T13:09:40.228Z,18.40
2018-03-30T13:12:07.994Z,18.40
2018-03-30T13:14:35.840Z,18.40
2018-03-30T13:17:03.648Z,18.40
2018-03-30T13:19:31.380Z,18.40
2018-03-30T13:21:59.147Z,18.50
2018-03-30T13:24:26.932Z,18.50
2018-03-30T13:26:54.756Z,18.50
2018-03-30T13:29:22.532Z,18.50
2018-03-30T13:31:50.301Z,18.50
2018-03-30T13:34:18.084Z,18.50
2018-03-30T13:36:45.879Z,18.50
2018-03-30T13:39:14.527Z,18.40
2018-03-30T13:41:42.313Z,18.40
2018-03-30T13:44:10.064Z,18.50
2018-03-30T13:46:37.842Z,18.50
2018-03-30T13:49:05.603Z,18.50
2018-03-30T13:51:43.225Z,18.40
2018-03-30T13:54:14.237Z,18.40
2018-03-30T13:56:53.003Z,18.40
2018-03-30T13:59:37.567Z,18.40
2018-03-30T14:02:14.276Z,18.40
2018-03-30T14:04:58.804Z,18.40
2018-03-30T14:07:26.647Z,18.40
2018-03-30T14:09:58.376Z,18.40
2018-03-30T14:12:34.485Z,18.40
2018-03-30T14:15:02.329Z,18.40
2018-03-30T14:17:36.041Z,18.40
2018-03-30T14:20:08.702Z,18.40
2018-03-30T14:22:37.504Z,18.40
2018-03-30T14:25:06.229Z,18.40
2018-03-30T14:27:37.952Z,18.40
2018-03-30T14:30:20.609Z,18.50
2018-03-30T14:32:54.140Z,18.50
2018-03-30T14:35:47.517Z,18.50
2018-03-30T14:38:32.004Z,18.50
2018-03-30T14:41:00.597Z,18.40
2018-03-30T14:43:29.383Z,18.40
2018-03-30T14:45:59.797Z,18.40
2018-03-30T14:48:28.402Z,18.50
2018-03-30T14:51:11.618Z,18.50
2018-03-30T14:53:55.018Z,18.50
2018-03-30T14:56:32.580Z,18.50
2018-03-30T14:59:16.935Z,18.50
2018-03-30T15:01:50.462Z,18.50
2018-03-30T15:04:23.963Z,18.50
2018-03-30T15:07:09.560Z,18.60
2018-03-30T15:09:42.907Z,18.60
2018-03-30T15:15:10.543Z,18.70
2018-03-30T15:17:44.247Z,18.60
2018-03-30T15:20:12.814Z,18.70
2018-03-30T15:22:44.280Z,18.70
2018-03-30T15:25:28.853Z,18.70
2018-03-30T15:27:59.122Z,18.70
2018-03-30T15:30:32.673Z,18.70
2018-03-30T15:33:04.839Z,18.80
2018-03-30T15:35:34.239Z,18.80
2018-03-30T15:38:02.809Z,18.80
2018-03-30T15:40:32.532Z,18.90
2018-03-30T15:43:11.919Z,18.90
2018-03-30T15:45:56.378Z,18.90
2018-03-30T15:48:24.200Z,18.90
2018-03-30T15:50:52.730Z,18.80
2018-03-30T15:53:19.982Z,18.90
2018-03-30T15:55:48.673Z,18.90
2018-03-30T15:58:16.551Z,18.90
2018-03-30T16:00:44.371Z,19.00
2018-03-30T16:03:12.173Z,19.00
2018-03-30T16:05:40.003Z,19.00
2018-03-30T16:08:07.802Z,19.00
2018-03-30T16:10:37.163Z,19.00
2018-03-30T16:13:04.956Z,19.00
2018-03-30T16:15:32.749Z,19.00
2018-03-30T16:18:01.344Z,19.00
2018-03-30T16:20:29.346Z,19.10
2018-03-30T16:22:57.343Z,19.10
2018-03-30T16:25:24.643Z,19.00
2018-03-30T16:27:52.010Z,19.10
2018-03-30T16:30:19.265Z,19.10
2018-03-30T16:32:46.517Z,19.00
2018-03-30T16:35:13.773Z,19.10
2018-03-30T16:37:41.046Z,19.10
2018-03-30T16:40:08.458Z,19.10
2018-03-30T16:42:35.705Z,19.00
2018-03-30T16:45:02.940Z,19.10
2018-03-30T16:47:30.981Z,19.10
2018-03-30T16:49:58.256Z,19.10
2018-03-30T16:52:26.280Z,19.10
2018-03-30T16:54:53.536Z,19.10
2018-03-30T16:57:20.791Z,19.10
2018-03-30T16:59:48.024Z,19.10
2018-03-30T17:02:15.285Z,19.10
2018-03-30T17:04:42.567Z,19.10
2018-03-30T17:07:09.812Z,19.20
2018-03-30T17:09:37.081Z,19.20
2018-03-30T17:12:05.125Z,19.20
2018-03-30T17:14:32.371Z,19.20
2018-03-30T17:16:59.617Z,19.20
2018-03-30T17:19:26.921Z,19.20
2018-03-30T17:21:54.952Z,19.20
2018-03-30T17:24:22.203Z,19.20
2018-03-30T17:26:49.445Z,19.20
2018-03-30T17:29:16.651Z,19.20
2018-03-30T17:31:44.572Z,19.20
2018-03-30T17:34:11.748Z,19.20
2018-03-30T17:36:39.729Z,19.20
2018-03-30T17:39:07.653Z,19.20
2018-03-30T17:41:34.803Z,19.20
2018-03-30T17:44:02.063Z,19.20
2018-03-30T17:46:29.343Z,19.30
2018-03-30T17:48:57.370Z,19.30
2018-03-30T17:51:24.640Z,19.20
2018-03-30T17:53:51.924Z,19.30
2018-03-30T17:56:19.184Z,19.30
2018-03-30T17:58:46.437Z,19.30
2018-03-30T18:01:13.724Z,19.30
2018-03-30T18:03:41.010Z,19.30
2018-03-30T18:06:09.064Z,19.30
2018-03-30T18:08:36.342Z,19.30
2018-03-30T18:11:04.380Z,19.30
2018-03-30T18:13:31.653Z,19.30
2018-03-30T18:15:58.855Z,19.30
2018-03-30T18:18:26.019Z,19.30
2018-03-30T18:20:53.272Z,19.40
2018-03-30T18:23:20.518Z,19.40
2018-03-30T18:25:47.796Z,19.40
2018-03-30T18:28:15.875Z,19.40
2018-03-30T18:30:43.893Z,19.40
2018-03-30T18:33:11.165Z,19.40
2018-03-30T18:35:39.192Z,19.40
2018-03-30T18:38:06.434Z,19.40
2018-03-30T18:40:33.693Z,19.40
2018-03-30T18:43:01.739Z,19.40
2018-03-30T18:45:29.806Z,19.40
2018-03-30T18:47:57.846Z,19.40
2018-03-30T18:50:25.193Z,19.40
2018-03-30T18:52:52.496Z,19.40
2018-03-30T18:55:19.803Z,19.40
2018-03-30T18:57:47.110Z,19.40
2018-03-30T19:00:14.410Z,19.50
2018-03-30T19:02:41.720Z,19.40
2018-03-30T19:05:09.010Z,19.40
2018-03-30T19:07:37.137Z,19.50
2018-03-30T19:10:04.444Z,19.50
2018-03-30T19:12:31.742Z,19.50
2018-03-30T19:14:59.132Z,19.50
2018-03-30T19:17:26.421Z,19.50
2018-03-30T19:19:54.480Z,19.50
2018-03-30T19:22:21.756Z,19.50
2018-03-30T19:24:49.824Z,19.50
2018-03-30T19:27:17.871Z,19.50
2018-03-30T19:29:45.163Z,19.50
2018-03-30T19:32:12.476Z,19.50
2018-03-30T19:34:39.797Z,19.50
2018-03-30T19:37:07.074Z,19.50
2018-03-30T19:39:35.192Z,19.60
2018-03-30T19:42:02.486Z,19.50
2018-03-30T19:44:29.765Z,19.60
2018-03-30T19:46:57.850Z,19.60
2018-03-30T19:49:25.930Z,19.60
2018-03-30T19:51:53.332Z,19.50
2018-03-30T19:54:20.616Z,19.60
2018-03-30T19:56:48.654Z,19.60
2018-03-30T19:59:16.736Z,19.60
2018-03-30T20:01:44.032Z,19.60
2018-03-30T20:04:11.379Z,19.60
2018-03-30T20:06:38.673Z,19.60
2018-03-30T20:09:06.031Z,19.60
2018-03-30T20:11:33.335Z,19.60
2018-03-30T20:14:01.410Z,19.60
2018-03-30T20:19:02.172Z,19.60
2018-03-30T20:21:29.466Z,19.60
2018-03-30T20:23:56.817Z,19.60
2018-03-30T20:26:24.114Z,19.60
2018-03-30T20:28:51.289Z,19.60
2018-03-30T20:31:18.452Z,19.60
2018-03-30T20:33:45.607Z,19.60
2018-03-30T20:36:12.778Z,19.60
2018-03-30T20:38:39.931Z,19.60
2018-03-30T20:41:07.202Z,19.60
2018-03-30T20:43:34.375Z,19.60
2018-03-30T20:46:01.601Z,19.60
2018-03-30T20:48:29.639Z,19.60
2018-03-30T20:50:56.913Z,19.60
2018-03-30T20:53:24.959Z,19.60
2018-03-30T20:55:52.212Z,19.60
2018-03-30T20:58:19.454Z,19.60
2018-03-30T21:00:46.746Z,19.60
2018-03-30T21:03:14.004Z,19.60
2018-03-30T21:05:41.289Z,19.60
2018-03-30T21:08:08.557Z,19.60
2018-03-30T21:10:35.888Z,19.60
2018-03-30T21:13:03.149Z,19.60
2018-03-30T21:15:30.444Z,19.60
2018-03-30T21:17:58.498Z,19.70
2018-03-30T21:20:25.755Z,19.60
2018-03-30T21:22:53.040Z,19.70
2018-03-30T21:25:20.311Z,19.60
2018-03-30T21:27:47.683Z,19.70
2018-03-30T21:30:14.972Z,19.70
2018-03-30T21:32:43.008Z,19.70
2018-03-30T21:35:10.437Z,19.60
2018-03-30T21:37:37.762Z,19.70
2018-03-30T21:40:05.031Z,19.70
2018-03-30T21:42:32.299Z,19.70
2018-03-30T21:44:59.557Z,19.70
2018-03-30T21:47:26.873Z,19.70
2018-03-30T21:49:54.899Z,19.70
2018-03-30T21:52:22.181Z,19.60
2018-03-30T21:54:50.216Z,19.60
2018-03-30T21:57:17.559Z,19.60
2018-03-30T21:59:44.920Z,19.70
2018-03-30T22:02:12.195Z,19.70
2018-03-30T22:04:39.436Z,19.70
2018-03-30T22:07:06.684Z,19.70
2018-03-30T22:09:33.942Z,19.70
2018-03-30T22:12:01.199Z,19.70
2018-03-30T22:14:28.474Z,19.70
2018-03-30T22:16:55.738Z,19.70
2018-03-30T22:19:22.986Z,19.70
2018-03-30T22:21:50.218Z,19.70
2018-03-30T22:24:18.247Z,19.70
2018-03-30T22:26:45.478Z,19.70
2018-03-30T22:29:12.744Z,19.70
2018-03-30T22:31:40.002Z,19.70
2018-03-30T22:34:07.252Z,19.70
2018-03-30T22:36:34.515Z,19.70
2018-03-30T22:39:01.769Z,19.70
2018-03-30T22:41:29.030Z,19.70
2018-03-30T22:43:56.268Z,19.70
2018-03-30T22:46:23.504Z,19.70
2018-03-30T22:48:50.734Z,19.70
2018-03-30T22:51:18.049Z,19.70
2018-03-30T22:53:46.043Z,19.70
2018-03-30T22:56:13.282Z,19.70
2018-03-30T22:58:40.552Z,19.70
2018-03-30T23:01:07.802Z,19.70
2018-03-30T23:03:35.051Z,19.70
2018-03-30T23:06:02.310Z,19.70
2018-03-30T23:08:29.570Z,19.70
2018-03-30T23:10:56.835Z,19.70
2018-03-30T23:13:24.130Z,19.80
2018-03-30T23:15:52.146Z,19.70
2018-03-30T23:18:19.376Z,19.70
2018-03-30T23:20:46.533Z,19.70
2018-03-30T23:23:13.719Z,19.70
2018-03-30T23:25:40.958Z,19.70
2018-03-30T23:28:08.140Z,19.70
2018-03-30T23:30:35.356Z,19.80
2018-03-30T23:33:02.516Z,19.80
2018-03-30T23:35:29.666Z,19.70
2018-03-30T23:37:56.815Z,19.80
2018-03-30T23:40:23.982Z,19.70
2018-03-30T23:42:51.203Z,19.80
2018-03-30T23:45:18.385Z,19.70
2018-03-30T23:47:45.566Z,19.70
2018-03-30T23:50:12.708Z,19.80
2018-03-30T23:52:40.700Z,19.70
2018-03-30T23:55:07.879Z,19.70
2018-03-30T23:57:35.051Z,19.80
